Mason, MI (48854)

6:57 PM EST on February 01, 2015 (GMT -0500)
Ingham County Sheriff's Office | Change Station
CLOSE
Current Station
Personal Weather Station
Location: Mason, MI
Elevation: 902 ft
Nearby Weather Stations
Active Advisory: Winter Storm Warning

Elev 902 ft 42.59 °N, 84.46 °W | Updated 7 seconds ago

Light Snow
Light Snow
16.3 °F
Feels Like 1 °F
N
15.0
Wind Variable Wind from North
Gusts 18.0 mph

Today
High -- | Low -- °F
--% Chance of Precip.
Yesterday
High -- | Low -- °F
Precip. -- in
7:52 AM 5:51 PM
Waxing Gibbous, 96% visible
Pressure 29.79 in
Visibility 1.2 miles
Clouds Overcast 800 ft
Windchill 1 °F
Dew Point 14 °F
Humidity 92%
Rainfall 0.00 in
Snow Depth Not available.
UV 0 out of 12
Pollen .10 out of 12
Air Quality Not available.
Flu Activity Not available.
METAR KTEW 012334Z AUTO 04013G20KT 1 1/4SM -SN OVC008 M09/M11 A2979 RMK AO2 T10951112

More Conditions Fewer Conditions

Pressure 29.79 in
Visibility 1.2 miles
Clouds Overcast 800 ft
Windchill 1 °F
Dew Point 14 °F
Humidity 92%
Rainfall 0.00 in
Snow Depth Not available.
UV 0 out of 12
Pollen .10 out of 12
Air Quality Not available.
Flu Activity Not available.
METAR KTEW 012334Z AUTO 04013G20KT 1 1/4SM -SN OVC008 M09/M11 A2979 RMK AO2 T10951112

More Conditions Fewer Conditions

10-Day Weather Forecast

Almanac

Astronomy

Feb. 01, 2015 Rise Set
Actual Time
Civil Twilight
Nautical Twilight
Astronomical Twilight
Moon
Length of Visible Light
Length of Day
Tomorrow will be .
, % of the Moon is Illuminated

Today's Extremes

State Highs State Lows

Community

WunderPhotos

Upload Photos

1,792,612 photos uploaded!

WunderBlogs® & News

Nearby

Air Quality

  Air Quality AQ Index Pollutant
Not available.

Snow Depth

Station Depth Elevation

Earthquake Activity

City Distance Mag. Time & Date
Minimum magnitude displayed is 2.5.

Coastal Water Temperatures

Place Temperature

Nearby Weather Stations